createdAt,value
2023-02-02T00:00:00.182Z,4.97
2023-02-02T00:03:02.816Z,5.00
2023-02-02T00:06:06.750Z,5.07
2023-02-02T00:09:10.733Z,5.19
2023-02-02T00:12:13.286Z,5.19
2023-02-02T00:15:14.654Z,5.14
2023-02-02T00:18:17.179Z,5.18
2023-02-02T00:21:19.125Z,5.15
2023-02-02T00:24:21.873Z,5.28
2023-02-02T00:27:23.164Z,5.30
2023-02-02T00:30:25.921Z,5.28
2023-02-02T00:33:27.257Z,5.25
2023-02-02T00:36:30.504Z,5.25
2023-02-02T00:42:52.657Z,5.50
2023-02-02T00:45:55.012Z,5.38
2023-02-02T00:48:56.313Z,5.38
2023-02-02T00:52:00.802Z,5.32
2023-02-02T00:55:03.424Z,5.24
2023-02-02T00:58:04.776Z,5.35
2023-02-02T01:01:15.726Z,5.45
2023-02-02T01:04:17.003Z,5.36
2023-02-02T01:07:20.263Z,5.31
2023-02-02T01:10:21.519Z,5.38
2023-02-02T01:13:24.064Z,5.18
2023-02-02T01:16:25.553Z,5.31
2023-02-02T01:19:28.193Z,5.29
2023-02-02T01:22:30.127Z,5.26
2023-02-02T01:25:34.237Z,5.29
2023-02-02T01:28:37.535Z,5.45
2023-02-02T01:31:41.128Z,5.55
2023-02-02T01:34:44.220Z,5.31
2023-02-02T01:37:46.167Z,5.22
2023-02-02T01:40:54.217Z,5.23
2023-02-02T01:43:58.788Z,5.22
2023-02-02T01:47:01.581Z,5.36
2023-02-02T01:50:05.543Z,5.22
2023-02-02T01:53:09.573Z,5.36
2023-02-02T01:56:16.445Z,5.23
2023-02-02T01:59:18.314Z,5.24
2023-02-02T02:02:21.485Z,5.38
2023-02-02T02:05:27.226Z,5.22
2023-02-02T02:08:34.826Z,5.22
2023-02-02T02:11:36.434Z,5.39
2023-02-02T02:14:57.278Z,5.41
2023-02-02T02:18:14.239Z,5.28
2023-02-02T02:21:58.059Z,5.48
2023-02-02T02:25:49.018Z,5.48
2023-02-02T02:29:36.364Z,5.63
2023-02-02T02:32:46.383Z,5.52
2023-02-02T02:35:58.685Z,5.57
2023-02-02T02:39:10.721Z,5.80
2023-02-02T02:42:16.755Z,5.69
2023-02-02T02:45:20.604Z,5.88
2023-02-02T02:51:46.496Z,5.73
2023-02-02T02:54:52.785Z,5.48
2023-02-02T02:58:06.459Z,5.82
2023-02-02T03:01:14.381Z,5.82
2023-02-02T03:04:23.213Z,5.83
2023-02-02T03:07:29.161Z,5.91
2023-02-02T03:10:32.563Z,5.86
2023-02-02T03:13:34.420Z,5.80
2023-02-02T03:16:37.759Z,5.85
2023-02-02T03:19:39.647Z,5.88
2023-02-02T03:22:42.171Z,5.81
2023-02-02T03:25:45.229Z,5.85
2023-02-02T03:28:46.668Z,5.91
2023-02-02T03:31:49.691Z,6.06
2023-02-02T03:34:51.633Z,5.74
2023-02-02T03:37:54.245Z,5.96
2023-02-02T03:40:55.519Z,5.84
2023-02-02T03:43:58.167Z,5.69
2023-02-02T03:46:59.565Z,5.61
2023-02-02T03:50:02.835Z,5.79
2023-02-02T03:53:04.963Z,5.76
2023-02-02T03:56:08.234Z,5.77
2023-02-02T03:59:09.503Z,5.81
2023-02-02T04:02:12.149Z,5.69
2023-02-02T04:05:15.703Z,5.91
2023-02-02T04:08:16.946Z,5.98
2023-02-02T04:11:19.860Z,5.77
2023-02-02T04:14:21.124Z,5.74
2023-02-02T04:17:23.697Z,5.90
2023-02-02T04:23:47.721Z,5.61
2023-02-02T04:26:49.060Z,5.88
2023-02-02T04:29:50.722Z,5.98
2023-02-02T04:32:52.060Z,5.90
2023-02-02T04:35:54.549Z,5.99
2023-02-02T04:38:55.891Z,6.04
2023-02-02T04:41:58.436Z,6.02
2023-02-02T04:45:00.623Z,5.98
2023-02-02T04:48:03.008Z,5.94
2023-02-02T04:51:09.067Z,5.85
2023-02-02T04:54:10.318Z,5.84
2023-02-02T04:57:11.634Z,5.84
2023-02-02T05:00:15.416Z,5.77
2023-02-02T05:03:17.967Z,5.76
2023-02-02T05:06:19.895Z,5.81
2023-02-02T05:09:22.583Z,5.88
2023-02-02T05:12:23.939Z,5.82
2023-02-02T05:15:26.315Z,5.80
2023-02-02T05:18:28.148Z,5.88
2023-02-02T05:21:30.113Z,5.81
2023-02-02T05:24:31.391Z,5.90
2023-02-02T05:27:34.125Z,5.79
2023-02-02T05:33:56.904Z,5.78
2023-02-02T05:36:58.883Z,5.95
2023-02-02T05:40:00.177Z,5.92
2023-02-02T05:43:02.728Z,5.67
2023-02-02T05:46:04.629Z,5.54
2023-02-02T05:49:05.950Z,5.71
2023-02-02T05:52:11.852Z,5.68
2023-02-02T05:55:13.170Z,5.85
2023-02-02T05:58:15.713Z,5.80
2023-02-02T06:01:18.741Z,5.67
2023-02-02T06:04:21.276Z,5.69
2023-02-02T06:07:24.481Z,5.58
2023-02-02T06:10:25.829Z,5.91
2023-02-02T06:13:28.367Z,5.79
2023-02-02T06:16:29.674Z,5.67
2023-02-02T06:19:32.735Z,5.68
2023-02-02T06:22:34.932Z,5.63
2023-02-02T06:25:37.545Z,5.65
2023-02-02T06:28:38.885Z,5.63
2023-02-02T06:31:41.494Z,5.67
2023-02-02T06:34:44.083Z,5.62
2023-02-02T06:37:46.072Z,5.63
2023-02-02T06:40:48.571Z,5.78
2023-02-02T06:43:49.987Z,5.60
2023-02-02T06:46:52.477Z,5.67
2023-02-02T06:49:53.811Z,5.49
2023-02-02T06:56:18.705Z,5.57
2023-02-02T06:59:20.181Z,5.61
2023-02-02T07:02:23.885Z,5.67
2023-02-02T07:05:30.112Z,5.65
2023-02-02T07:08:33.801Z,5.56
2023-02-02T07:11:37.395Z,5.53
2023-02-02T07:14:42.105Z,5.47
2023-02-02T07:17:43.365Z,5.57
2023-02-02T07:20:44.668Z,5.73
2023-02-02T07:23:47.078Z,5.52
2023-02-02T07:26:48.443Z,5.51
2023-02-02T07:29:51.023Z,5.37
2023-02-02T07:32:52.277Z,5.41
2023-02-02T07:35:54.832Z,5.36
2023-02-02T07:38:57.152Z,5.55
2023-02-02T07:42:01.420Z,5.77
2023-02-02T07:45:27.152Z,5.98
2023-02-02T07:48:27.128Z,6.06
2023-02-02T07:51:28.421Z,6.12
2023-02-02T07:54:31.391Z,5.76
2023-02-02T07:57:32.740Z,5.73
2023-02-02T08:00:34.033Z,5.76
2023-02-02T08:03:40.022Z,5.85
2023-02-02T08:06:41.428Z,5.95
2023-02-02T08:09:48.590Z,5.97
2023-02-02T08:12:49.899Z,6.09
2023-02-02T08:15:52.423Z,6.06
2023-02-02T08:18:55.567Z,6.01
2023-02-02T08:21:56.865Z,6.20
2023-02-02T08:24:58.786Z,6.48
2023-02-02T08:28:02.234Z,6.40
2023-02-02T08:31:06.296Z,6.27
2023-02-02T08:34:07.631Z,6.38
2023-02-02T08:37:08.897Z,6.44
2023-02-02T08:40:13.431Z,6.51
2023-02-02T08:43:16.577Z,6.49
2023-02-02T08:49:41.666Z,6.42
2023-02-02T08:52:44.558Z,6.51
2023-02-02T08:55:46.618Z,6.62
2023-02-02T08:58:51.158Z,6.76
2023-02-02T09:01:53.488Z,6.91
2023-02-02T09:04:54.811Z,7.06
2023-02-02T09:07:56.417Z,6.88
2023-02-02T09:11:03.195Z,6.90
2023-02-02T09:14:06.922Z,6.94
2023-02-02T09:17:08.301Z,6.95
2023-02-02T09:20:11.859Z,6.83
2023-02-02T09:23:13.150Z,6.97
2023-02-02T09:26:18.469Z,7.01
2023-02-02T09:29:19.931Z,7.06
2023-02-02T09:32:22.285Z,7.05
2023-02-02T09:35:25.218Z,7.03
2023-02-02T09:38:26.723Z,7.21
2023-02-02T09:42:08.027Z,7.21
2023-02-02T09:45:18.329Z,7.27
2023-02-02T09:48:32.688Z,7.15
2023-02-02T09:51:41.002Z,7.40
2023-02-02T09:54:44.478Z,7.27
2023-02-02T09:57:51.917Z,7.30
2023-02-02T10:01:01.088Z,7.47
2023-02-02T10:04:09.519Z,7.49
2023-02-02T10:07:18.259Z,7.37
2023-02-02T10:10:25.185Z,7.32
2023-02-02T10:13:34.397Z,7.46
2023-02-02T10:16:38.653Z,7.38
2023-02-02T10:19:42.071Z,7.23
2023-02-02T10:22:45.519Z,7.81
2023-02-02T10:25:55.876Z,7.89
2023-02-02T10:29:09.279Z,8.47
2023-02-02T10:32:21.863Z,9.12
2023-02-02T10:35:37.856Z,9.18
2023-02-02T10:38:47.416Z,8.50
2023-02-02T10:42:03.266Z,8.69
2023-02-02T10:45:14.107Z,8.93
2023-02-02T10:48:19.444Z,8.92
2023-02-02T10:51:27.140Z,8.77
2023-02-02T10:54:56.342Z,8.60
2023-02-02T10:58:08.238Z,8.17
2023-02-02T11:01:11.967Z,8.32
2023-02-02T11:04:32.720Z,8.29
2023-02-02T11:07:35.728Z,8.15
2023-02-02T11:10:38.112Z,8.08
2023-02-02T11:13:45.010Z,7.87
2023-02-02T11:17:02.742Z,7.90
2023-02-02T11:20:24.205Z,7.95
2023-02-02T11:23:27.712Z,7.94
2023-02-02T11:26:42.822Z,7.86
2023-02-02T11:29:47.781Z,8.03
2023-02-02T11:32:51.138Z,8.18
2023-02-02T11:35:54.980Z,8.20
2023-02-02T11:39:15.127Z,8.27
2023-02-02T11:42:19.707Z,8.08
2023-02-02T11:45:30.081Z,7.96
2023-02-02T11:48:36.637Z,7.81
2023-02-02T11:51:39.076Z,7.77
2023-02-02T11:54:46.822Z,7.91
2023-02-02T11:58:19.756Z,7.84
2023-02-02T12:01:26.454Z,7.77
2023-02-02T12:04:32.177Z,7.57
2023-02-02T12:07:35.492Z,7.25
2023-02-02T12:10:44.496Z,6.77
2023-02-02T12:13:58.720Z,6.58
2023-02-02T12:17:09.623Z,6.45
2023-02-02T12:20:38.774Z,6.66
2023-02-02T12:23:53.783Z,7.22
2023-02-02T12:27:05.186Z,7.51
2023-02-02T12:30:22.524Z,7.83
2023-02-02T12:33:34.648Z,7.83
2023-02-02T12:36:49.039Z,7.82
2023-02-02T12:40:03.358Z,7.74
2023-02-02T12:43:22.468Z,7.68
2023-02-02T12:46:45.298Z,7.44
2023-02-02T12:50:02.538Z,7.53
2023-02-02T12:53:25.881Z,7.67
2023-02-02T12:56:37.119Z,7.47
2023-02-02T13:00:03.257Z,7.38
2023-02-02T13:03:18.752Z,7.47
2023-02-02T13:06:51.474Z,7.56
2023-02-02T13:10:12.086Z,7.43
2023-02-02T13:13:19.244Z,7.37
2023-02-02T13:16:21.821Z,7.50
2023-02-02T13:19:31.231Z,7.18
2023-02-02T13:22:38.205Z,7.20
2023-02-02T13:25:47.139Z,7.17
2023-02-02T13:28:54.591Z,7.28
2023-02-02T13:32:02.007Z,7.20
2023-02-02T13:35:10.752Z,7.08
2023-02-02T13:38:20.355Z,7.12
2023-02-02T13:41:22.987Z,7.08
2023-02-02T13:44:29.736Z,7.16
2023-02-02T13:47:41.432Z,7.17
2023-02-02T13:50:56.249Z,7.02
2023-02-02T13:54:21.998Z,7.08
2023-02-02T13:57:56.198Z,6.87
2023-02-02T14:01:03.145Z,6.91
2023-02-02T14:04:06.048Z,6.96
2023-02-02T14:07:07.627Z,6.98
2023-02-02T14:10:22.959Z,7.02
2023-02-02T14:13:50.899Z,7.07
2023-02-02T14:16:56.022Z,6.98
2023-02-02T14:19:58.651Z,6.97
2023-02-02T14:23:00.980Z,6.86
2023-02-02T14:26:08.225Z,6.83
2023-02-02T14:29:39.362Z,6.67
2023-02-02T14:32:42.174Z,6.58
2023-02-02T14:36:01.926Z,6.60
2023-02-02T14:39:21.240Z,6.60
2023-02-02T14:43:07.612Z,6.58
2023-02-02T14:46:38.826Z,6.41
2023-02-02T14:49:40.386Z,6.35
2023-02-02T14:52:41.933Z,6.39
2023-02-02T14:55:54.214Z,6.32
2023-02-02T14:59:00.476Z,6.25
2023-02-02T15:02:19.585Z,6.36
2023-02-02T15:05:44.007Z,6.18
2023-02-02T15:08:45.811Z,6.16
2023-02-02T15:12:21.060Z,6.16
2023-02-02T15:15:29.890Z,6.02
2023-02-02T15:18:40.848Z,5.86
2023-02-02T15:21:48.491Z,5.95
2023-02-02T15:24:51.142Z,5.78
2023-02-02T15:28:00.219Z,5.79
2023-02-02T15:31:07.085Z,5.68
2023-02-02T15:34:17.508Z,5.61
2023-02-02T15:37:22.405Z,5.56
2023-02-02T15:40:26.353Z,5.51
2023-02-02T15:43:29.230Z,5.41
2023-02-02T15:46:36.018Z,5.27
2023-02-02T15:49:39.246Z,5.24
2023-02-02T15:52:46.722Z,5.18
2023-02-02T15:55:49.573Z,5.13
2023-02-02T15:58:52.950Z,5.13
2023-02-02T16:02:17.962Z,5.03
2023-02-02T16:05:42.352Z,4.98
2023-02-02T16:08:44.255Z,4.91
2023-02-02T16:11:47.660Z,4.88
2023-02-02T16:14:52.627Z,4.85
2023-02-02T16:18:01.170Z,4.82
2023-02-02T16:21:15.385Z,4.73
2023-02-02T16:24:21.038Z,4.64
2023-02-02T16:27:26.073Z,4.63
2023-02-02T16:30:29.852Z,4.55
2023-02-02T16:33:39.639Z,4.47
2023-02-02T16:40:18.922Z,4.34
2023-02-02T16:43:26.462Z,4.25
2023-02-02T16:46:45.043Z,4.20
2023-02-02T16:49:46.360Z,4.14
2023-02-02T16:52:53.257Z,4.11
2023-02-02T16:55:57.104Z,4.06
2023-02-02T17:02:29.462Z,3.94
2023-02-02T17:05:34.649Z,3.85
2023-02-02T17:08:39.747Z,3.80
2023-02-02T17:11:55.990Z,3.73
2023-02-02T17:15:00.790Z,3.66
2023-02-02T17:18:04.852Z,3.58
2023-02-02T17:21:07.409Z,3.53
2023-02-02T17:24:11.609Z,3.43
2023-02-02T17:27:16.744Z,3.38
2023-02-02T17:30:19.240Z,3.30
2023-02-02T17:33:21.862Z,3.24
2023-02-02T17:36:24.400Z,3.14
2023-02-02T17:39:26.341Z,3.09
2023-02-02T17:42:29.178Z,3.06
2023-02-02T17:45:34.096Z,3.00
2023-02-02T17:48:42.957Z,2.85
2023-02-02T17:51:45.839Z,2.84
2023-02-02T17:54:47.790Z,2.74
2023-02-02T17:57:51.118Z,2.70
2023-02-02T18:00:55.508Z,2.66
2023-02-02T18:03:57.054Z,2.65
2023-02-02T18:06:59.661Z,2.60
2023-02-02T18:10:01.596Z,2.59
2023-02-02T18:13:03.069Z,2.55
2023-02-02T18:16:06.342Z,2.53
2023-02-02T18:19:08.878Z,2.49
2023-02-02T18:22:10.480Z,2.40
2023-02-02T18:25:12.515Z,2.41
2023-02-02T18:28:17.605Z,2.42
2023-02-02T18:31:22.335Z,2.38
2023-02-02T18:34:23.822Z,2.35
2023-02-02T18:37:25.311Z,2.32
2023-02-02T18:40:28.480Z,2.29
2023-02-02T18:43:31.078Z,2.23
2023-02-02T18:46:33.260Z,2.20
2023-02-02T18:49:35.839Z,2.12
2023-02-02T18:52:37.138Z,2.05
2023-02-02T18:55:39.101Z,1.99
2023-02-02T18:58:40.620Z,1.92
2023-02-02T19:01:42.020Z,1.88
2023-02-02T19:08:24.719Z,1.73
2023-02-02T19:11:34.115Z,1.68
2023-02-02T19:14:38.052Z,1.63
2023-02-02T19:17:39.757Z,1.66
2023-02-02T19:20:43.596Z,1.64
2023-02-02T19:23:45.418Z,1.66
2023-02-02T19:26:50.641Z,1.63
2023-02-02T19:29:55.613Z,1.62
2023-02-02T19:32:57.775Z,1.64
2023-02-02T19:35:59.109Z,1.60
2023-02-02T19:39:10.465Z,1.58
2023-02-02T19:42:14.074Z,1.56
2023-02-02T19:45:25.313Z,1.57
2023-02-02T19:48:32.186Z,1.60
2023-02-02T19:51:41.427Z,1.59
2023-02-02T19:54:45.562Z,1.57
2023-02-02T19:57:47.492Z,1.61
2023-02-02T20:00:52.065Z,1.65
2023-02-02T20:03:54.471Z,1.64
2023-02-02T20:06:59.631Z,1.61
2023-02-02T20:10:14.788Z,1.67
2023-02-02T20:13:21.242Z,1.66
2023-02-02T20:16:25.344Z,1.67
2023-02-02T20:19:30.595Z,1.72
2023-02-02T20:22:33.025Z,1.76
2023-02-02T20:25:36.727Z,1.76
2023-02-02T20:28:42.625Z,1.77
2023-02-02T20:31:45.128Z,1.80
2023-02-02T20:34:46.497Z,1.75
2023-02-02T20:37:48.351Z,1.80
2023-02-02T20:40:52.631Z,1.84
2023-02-02T20:43:54.565Z,1.84
2023-02-02T20:50:20.054Z,1.81
2023-02-02T20:53:22.874Z,1.85
2023-02-02T20:56:24.815Z,1.78
2023-02-02T20:59:28.010Z,1.76
2023-02-02T21:02:29.322Z,1.78
2023-02-02T21:05:31.920Z,1.78
2023-02-02T21:08:33.191Z,1.77
2023-02-02T21:11:35.891Z,1.76
2023-02-02T21:14:38.157Z,1.74
2023-02-02T21:17:41.291Z,1.70
2023-02-02T21:20:43.842Z,1.70
2023-02-02T21:23:47.801Z,1.71
2023-02-02T21:26:52.135Z,1.72
2023-02-02T21:29:55.724Z,1.71
2023-02-02T21:32:57.731Z,1.68
2023-02-02T21:36:03.626Z,1.67
2023-02-02T21:39:27.639Z,1.71
2023-02-02T21:42:35.013Z,1.69
2023-02-02T21:45:39.302Z,1.66
2023-02-02T21:48:41.291Z,1.68
2023-02-02T21:51:43.803Z,1.70
2023-02-02T21:54:46.998Z,1.71
2023-02-02T21:57:48.338Z,1.74
2023-02-02T22:00:51.920Z,1.72
2023-02-02T22:03:53.540Z,1.70
2023-02-02T22:06:59.829Z,1.71
2023-02-02T22:10:02.408Z,1.74
2023-02-02T22:13:15.324Z,1.76
2023-02-02T22:16:21.154Z,1.80
2023-02-02T22:19:32.542Z,1.83
2023-02-02T22:22:36.045Z,1.81
2023-02-02T22:25:41.200Z,1.83
2023-02-02T22:28:43.704Z,1.85
2023-02-02T22:31:46.921Z,1.88
2023-02-02T22:34:48.193Z,1.86
2023-02-02T22:37:51.893Z,1.90
2023-02-02T22:40:53.746Z,1.97
2023-02-02T22:43:56.362Z,1.98
2023-02-02T22:46:59.610Z,2.01
2023-02-02T22:50:00.867Z,2.09
2023-02-02T22:53:04.530Z,2.09
2023-02-02T22:56:06.374Z,2.13
2023-02-02T22:59:27.161Z,2.20
2023-02-02T23:02:29.140Z,2.21
2023-02-02T23:05:30.496Z,2.24
2023-02-02T23:08:33.166Z,2.27
2023-02-02T23:11:34.459Z,2.30
2023-02-02T23:14:37.057Z,2.35
2023-02-02T23:17:40.328Z,2.42
2023-02-02T23:20:41.650Z,2.47
2023-02-02T23:23:44.421Z,2.49
2023-02-02T23:26:45.704Z,2.54
2023-02-02T23:29:48.254Z,2.54
2023-02-02T23:32:50.377Z,2.52
2023-02-02T23:35:52.936Z,2.59
2023-02-02T23:38:55.499Z,2.61
2023-02-02T23:41:56.834Z,2.69
2023-02-02T23:44:59.372Z,2.74
2023-02-02T23:48:01.515Z,2.84
2023-02-02T23:51:04.230Z,2.82
2023-02-02T23:54:06.057Z,2.85
2023-02-02T23:57:08.664Z,2.91
